createdAt,value
2022-12-05T00:51:28.545Z,1.30
2022-12-05T00:54:03.683Z,1.30
2022-12-05T00:56:36.216Z,1.30
2022-12-05T00:59:08.679Z,1.40
2022-12-05T01:01:46.524Z,1.40
2022-12-05T01:04:23.097Z,1.40
2022-12-05T01:06:59.073Z,1.40
2022-12-05T01:09:30.903Z,1.40
2022-12-05T01:12:03.740Z,1.40
2022-12-05T01:14:35.792Z,1.40
2022-12-05T01:17:07.638Z,1.40
2022-12-05T01:19:41.532Z,1.40
2022-12-05T01:22:13.666Z,1.40
2022-12-05T01:24:45.961Z,1.30
2022-12-05T01:27:20.057Z,1.40
2022-12-05T01:29:51.127Z,1.40
2022-12-05T01:32:23.038Z,1.40
2022-12-05T01:34:58.711Z,1.40
2022-12-05T01:37:30.365Z,1.40
2022-12-05T01:40:02.165Z,1.30
2022-12-05T01:42:36.826Z,1.30
2022-12-05T01:45:13.133Z,1.40
2022-12-05T01:47:44.471Z,1.40
2022-12-05T01:50:18.409Z,1.50
2022-12-05T01:52:49.562Z,1.40
2022-12-05T01:55:22.041Z,1.40
2022-12-05T01:57:54.577Z,1.40
2022-12-05T02:00:26.558Z,1.40
2022-12-05T02:03:01.303Z,1.40
2022-12-05T02:05:40.113Z,1.50
2022-12-05T02:08:15.290Z,1.40
2022-12-05T02:10:50.296Z,1.40
2022-12-05T02:13:37.629Z,1.40
2022-12-05T02:16:16.341Z,1.40
2022-12-05T02:19:03.226Z,1.40
2022-12-05T02:22:09.881Z,1.40
2022-12-05T02:25:09.775Z,1.40
2022-12-05T02:28:03.067Z,1.40
2022-12-05T02:30:42.470Z,1.40
2022-12-05T02:33:23.935Z,1.40
2022-12-05T02:36:02.804Z,1.30
2022-12-05T02:38:41.131Z,1.30
2022-12-05T02:41:20.351Z,1.40
2022-12-05T02:43:58.281Z,1.40
2022-12-05T02:46:36.088Z,1.40
2022-12-05T02:49:12.338Z,1.40
2022-12-05T02:51:46.792Z,1.40
2022-12-05T02:54:23.052Z,1.40
2022-12-05T02:56:55.995Z,1.40
2022-12-05T02:59:27.624Z,1.40
2022-12-05T03:02:02.371Z,1.40
2022-12-05T03:04:34.925Z,1.40
2022-12-05T03:07:10.237Z,1.40
2022-12-05T03:09:44.677Z,1.50
2022-12-05T03:12:21.566Z,1.40
2022-12-05T03:14:57.784Z,1.40
2022-12-05T03:17:39.402Z,1.40
2022-12-05T03:20:17.014Z,1.30
2022-12-05T03:22:55.970Z,1.40
2022-12-05T03:25:33.990Z,1.40
2022-12-05T03:28:09.030Z,1.30
2022-12-05T03:30:43.420Z,1.30
2022-12-05T03:33:21.633Z,1.30
2022-12-05T03:36:04.973Z,1.40
2022-12-05T03:38:43.949Z,1.40
2022-12-05T03:41:24.539Z,1.40
2022-12-05T03:44:00.482Z,1.40
2022-12-05T03:46:36.102Z,1.40
2022-12-05T03:49:15.423Z,1.40
2022-12-05T03:51:54.202Z,1.30
2022-12-05T03:54:29.393Z,1.40
2022-12-05T03:57:09.972Z,1.40
2022-12-05T03:59:44.944Z,1.40
2022-12-05T04:02:19.965Z,1.30
2022-12-05T04:04:59.208Z,1.30
2022-12-05T04:07:35.552Z,1.30
2022-12-05T04:10:12.300Z,1.30
2022-12-05T04:12:46.035Z,1.30
2022-12-05T04:15:24.477Z,1.30
2022-12-05T04:17:58.625Z,1.30
2022-12-05T04:20:53.649Z,1.30
2022-12-05T04:23:26.763Z,1.30
2022-12-05T04:26:02.930Z,1.30
2022-12-05T04:28:39.669Z,1.30
2022-12-05T04:31:14.500Z,1.30
2022-12-05T04:33:49.443Z,1.30
2022-12-05T04:36:29.629Z,1.40
2022-12-05T04:39:05.350Z,1.30
2022-12-05T04:41:41.090Z,1.30
2022-12-05T04:44:15.274Z,1.20
2022-12-05T04:46:48.465Z,1.20
2022-12-05T04:49:23.881Z,1.30
2022-12-05T04:51:58.931Z,1.30
2022-12-05T04:54:35.404Z,1.20
2022-12-05T04:57:13.575Z,1.20
2022-12-05T04:59:46.295Z,1.20
2022-12-05T05:02:23.482Z,1.20
2022-12-05T05:04:58.831Z,1.20
2022-12-05T05:07:32.839Z,1.20
2022-12-05T05:10:04.581Z,1.20
2022-12-05T05:12:35.624Z,1.20
2022-12-05T05:15:07.400Z,1.20
2022-12-05T05:17:38.533Z,1.20
2022-12-05T05:20:23.944Z,1.20
2022-12-05T05:22:59.125Z,1.10
2022-12-05T05:25:30.221Z,1.10
2022-12-05T05:28:06.715Z,1.10
2022-12-05T05:30:41.683Z,1.10
2022-12-05T05:33:15.289Z,1.10
2022-12-05T05:35:46.348Z,1.00
2022-12-05T05:38:23.060Z,1.00
2022-12-05T05:40:59.135Z,1.00
2022-12-05T05:43:34.612Z,1.00
2022-12-05T05:46:10.068Z,0.90
2022-12-05T05:48:41.303Z,0.90
2022-12-05T05:51:15.393Z,0.90
2022-12-05T05:53:50.197Z,0.90
2022-12-05T05:56:22.805Z,0.90
2022-12-05T05:59:02.081Z,0.90
2022-12-05T06:01:35.857Z,0.90
2022-12-05T06:04:10.666Z,0.80
2022-12-05T06:06:43.264Z,0.70
2022-12-05T06:09:19.128Z,0.70
2022-12-05T06:11:52.004Z,0.70
2022-12-05T06:14:30.931Z,0.70
2022-12-05T06:17:03.460Z,0.60
2022-12-05T06:19:36.510Z,0.60
2022-12-05T06:22:08.912Z,0.60
2022-12-05T06:24:42.807Z,0.50
2022-12-05T06:27:15.044Z,0.50
2022-12-05T06:29:46.682Z,0.40
2022-12-05T06:32:18.381Z,0.50
2022-12-05T06:34:50.284Z,0.50
2022-12-05T06:37:22.367Z,0.50
2022-12-05T06:39:58.642Z,0.40
2022-12-05T06:42:30.308Z,0.40
2022-12-05T06:45:02.513Z,0.40
2022-12-05T06:47:34.386Z,0.30
2022-12-05T06:50:06.355Z,0.30
2022-12-05T06:52:38.734Z,0.30
2022-12-05T06:55:14.830Z,0.20
2022-12-05T06:57:46.741Z,0.20
2022-12-05T07:00:36.273Z,0.20
2022-12-05T07:03:08.151Z,0.20
2022-12-05T07:05:39.219Z,0.20
2022-12-05T07:08:12.601Z,0.30
2022-12-05T07:10:53.907Z,0.30
2022-12-05T07:13:26.507Z,0.30
2022-12-05T07:15:57.639Z,0.30
2022-12-05T07:18:29.708Z,0.30
2022-12-05T07:21:17.582Z,0.30
2022-12-05T07:23:51.558Z,0.40
2022-12-05T07:26:28.359Z,0.40
2022-12-05T07:29:02.884Z,0.40
2022-12-05T07:31:35.810Z,0.40
2022-12-05T07:34:07.748Z,0.50
2022-12-05T07:36:39.114Z,0.50
2022-12-05T07:39:13.028Z,0.60
2022-12-05T07:41:48.614Z,0.60
2022-12-05T07:44:21.758Z,0.60
2022-12-05T07:46:53.118Z,0.60
2022-12-05T07:49:25.260Z,0.70
2022-12-05T07:51:57.289Z,0.70
2022-12-05T07:54:28.258Z,0.80
2022-12-05T07:57:04.565Z,0.80
2022-12-05T07:59:37.533Z,0.80
2022-12-05T08:02:09.260Z,0.90
2022-12-05T08:04:41.061Z,0.90
2022-12-05T08:07:15.149Z,0.90
2022-12-05T08:09:47.354Z,0.90
2022-12-05T08:12:21.093Z,0.90
2022-12-05T08:14:52.679Z,0.90
2022-12-05T08:17:24.418Z,0.80
2022-12-05T08:19:57.270Z,0.80
2022-12-05T08:22:28.554Z,0.80
2022-12-05T08:25:00.950Z,0.80
2022-12-05T08:27:35.089Z,0.80
2022-12-05T08:30:06.318Z,0.80
2022-12-05T08:32:38.657Z,0.80
2022-12-05T08:35:11.950Z,0.90
2022-12-05T08:37:43.186Z,0.90
2022-12-05T08:40:17.205Z,0.80
2022-12-05T08:42:51.392Z,0.80
